Time;durP1;ratioP1;P1;durP2;ratioP2;P2;SDS_P1;SDS_P2;PMS_P1;PMS_P2;Temp;Humidity;BMP_temperature;BMP_pressure;BME280_temperature;BME280_humidity;BME280_pressure;Samples;Min_cycle;Max_cycle;Signal;HPM_P1;HPM_P2
2022/08/14 00:01:44;;;;;;;26.97;16.30;;;;;;;22.18;49.99;99879.75;5052355;28;20531;-71
2022/08/14 00:04:22;;;;;;;29.10;18.63;;;;;;;22.18;49.75;99888.25;5055836;28;20078;-70
2022/08/14 00:07:10;;;;;;;34.50;19.00;;;;;;;22.18;49.67;99887.44;5073053;28;20048;-71
2022/08/14 00:09:43;;;;;;;37.20;19.15;;;;;;;22.18;49.62;99884.59;5072960;28;20040;-71
2022/08/14 00:12:33;;;;;;;28.55;16.92;;;;;;;22.17;49.49;99877.31;5072651;28;20048;-71
2022/08/14 00:15:18;;;;;;;30.52;17.83;;;;;;;22.25;48.98;99882.59;5073067;28;20052;-72
2022/08/14 00:17:48;;;;;;;31.02;16.85;;;;;;;22.28;48.70;99880.97;5072662;28;20056;-70
2022/08/14 00:20:24;;;;;;;25.08;14.18;;;;;;;22.33;48.13;99880.56;5072682;28;20504;-71
2022/08/14 00:23:03;;;;;;;25.00;13.68;;;;;;;22.41;47.40;99883.00;5072551;28;20048;-71
2022/08/14 00:25:45;;;;;;;32.13;14.50;;;;;;;22.43;47.34;99879.75;5068402;28;20087;-71
2022/08/14 00:28:25;;;;;;;26.38;15.57;;;;;;;22.45;46.85;99878.16;5052777;28;20048;-71
2022/08/14 00:31:00;;;;;;;26.55;13.68;;;;;;;22.50;46.49;99876.97;5052190;28;20135;-71
2022/08/14 00:33:27;;;;;;;24.15;13.48;;;;;;;22.54;46.34;99870.09;5052466;28;20148;-72
2022/08/14 00:36:15;;;;;;;23.48;12.80;;;;;;;22.57;46.01;99874.16;5052724;28;20098;-72
2022/08/14 00:39:03;;;;;;;27.92;16.23;;;;;;;22.54;46.01;99870.09;5052204;28;20122;-70
2022/08/14 00:41:32;;;;;;;27.92;14.57;;;;;;;22.50;46.28;99869.28;5052185;28;20140;-72
2022/08/14 00:43:59;;;;;;;25.00;14.82;;;;;;;22.42;46.84;99872.47;5057216;28;20044;-71
2022/08/14 00:46:27;;;;;;;24.95;14.73;;;;;;;22.31;47.17;99872.47;5072413;28;20044;-72
2022/08/14 00:48:59;;;;;;;29.90;15.18;;;;;;;22.21;47.78;99878.94;5072282;28;20411;-71
2022/08/14 00:51:31;;;;;;;25.63;15.93;;;;;;;22.14;47.91;99873.25;5072173;28;20055;-71
2022/08/14 00:54:07;;;;;;;33.05;17.45;;;;;;;22.06;48.33;99877.31;5072231;28;20549;-72
2022/08/14 00:56:48;;;;;;;23.33;13.98;;;;;;;21.97;48.54;99873.22;5072388;28;20525;-71
2022/08/14 00:59:15;;;;;;;28.13;14.52;;;;;;;21.92;48.74;99870.78;5071948;28;20087;-71
2022/08/14 01:01:43;;;;;;;26.40;13.75;;;;;;;21.87;48.92;99874.00;5072260;28;20055;-71
2022/08/14 01:04:10;;;;;;;24.40;13.68;;;;;;;21.82;48.96;99872.38;5072219;28;20067;-76
2022/08/14 01:06:57;;;;;;;27.27;14.15;;;;;;;21.75;49.13;99871.50;5071578;28;20053;-76
2022/08/14 01:09:25;;;;;;;35.95;14.20;;;;;;;21.68;49.23;99873.09;5054764;28;20469;-76
2022/08/14 01:11:56;;;;;;;22.48;14.25;;;;;;;21.65;49.50;99873.09;5071898;28;20052;-76
2022/08/14 01:14:29;;;;;;;27.88;14.48;;;;;;;21.61;49.65;99875.06;5073202;28;20572;-77
2022/08/14 01:16:59;;;;;;;25.85;14.45;;;;;;;21.60;49.73;99879.94;5076012;28;20174;-76
2022/08/14 01:22:14;;;;;;;26.67;15.17;;;;;;;21.52;50.10;99880.28;5061242;28;20044;-77
2022/08/14 01:24:45;;;;;;;25.13;13.93;;;;;;;21.49;49.96;99876.25;5076001;28;20329;-77
2022/08/14 01:27:21;;;;;;;24.70;14.50;;;;;;;21.47;50.35;99886.34;5057586;28;20052;-77
2022/08/14 01:29:52;;;;;;;31.05;15.13;;;;;;;21.40;50.41;99874.97;5063505;28;20048;-76
2022/08/14 01:32:31;;;;;;;23.00;14.35;;;;;;;21.37;50.58;99872.94;5056067;28;20045;-71
2022/08/14 01:35:08;;;;;;;39.53;15.43;;;;;;;21.34;50.66;99873.72;5074031;28;20178;-71
2022/08/14 01:37:56;;;;;;;27.45;13.95;;;;;;;21.31;50.63;99880.19;5075515;28;20075;-71
2022/08/14 01:40:24;;;;;;;32.13;14.23;;;;;;;21.27;51.00;99880.19;5075885;28;20068;-72
2022/08/14 01:43:14;;;;;;;26.63;13.90;;;;;;;21.24;50.93;99880.16;5075416;28;20522;-71
2022/08/14 01:45:50;;;;;;;22.85;14.07;;;;;;;21.25;50.95;99887.44;5075724;28;20056;-72
2022/08/14 01:48:32;;;;;;;23.67;14.68;;;;;;;21.21;51.04;99889.44;5076144;28;20048;-72
2022/08/14 01:51:05;;;;;;;29.25;14.20;;;;;;;21.21;51.23;99887.44;5075291;28;20052;-71
2022/08/14 01:53:47;;;;;;;26.80;14.00;;;;;;;21.21;51.23;99886.63;5075057;28;20507;-71
2022/08/14 01:56:34;;;;;;;26.40;14.52;;;;;;;21.19;51.50;99889.84;5075307;28;20045;-71
2022/08/14 01:59:20;;;;;;;26.95;14.80;;;;;;;21.19;51.40;99891.84;5074966;28;20449;-72
2022/08/14 02:01:50;;;;;;;26.95;14.50;;;;;;;21.15;51.42;99882.53;5075178;28;20235;-72
2022/08/14 02:04:30;;;;;;;28.95;13.65;;;;;;;21.15;51.50;99894.69;5074749;28;20072;-71
2022/08/14 02:07:17;;;;;;;33.88;14.43;;;;;;;21.09;51.67;99889.78;5075060;28;20055;-72
2022/08/14 02:10:05;;;;;;;30.70;14.93;;;;;;;21.06;51.76;99893.38;5059061;28;20470;-72
2022/08/14 02:12:32;;;;;;;28.63;14.82;;;;;;;21.06;51.84;99896.22;5054870;28;20087;-71
2022/08/14 02:15:00;;;;;;;27.02;14.48;;;;;;;21.06;51.82;99896.22;5054854;28;20523;-71
2022/08/14 02:17:32;;;;;;;31.23;14.70;;;;;;;21.07;52.06;99900.66;5055081;28;20064;-72
2022/08/14 02:19:59;;;;;;;42.13;15.88;;;;;;;21.02;52.20;99901.84;5054677;28;20537;-70
2022/08/14 02:22:28;;;;;;;28.05;15.02;;;;;;;21.00;52.04;99898.63;5054632;28;20049;-71
2022/08/14 02:25:00;;;;;;;34.13;15.50;;;;;;;21.03;52.34;99902.66;5055605;28;20053;-71
2022/08/14 02:27:29;;;;;;;;;;;;;;;20.92;52.30;99898.91;5075255;28;20430;-76
2022/08/14 02:30:16;;;;;;;28.63;14.80;;;;;;;20.95;52.39;99898.97;5074809;28;19968;-76
2022/08/14 02:32:44;;;;;;;30.02;15.88;;;;;;;20.97;52.38;99905.06;5074727;28;20048;-75
2022/08/14 02:35:17;;;;;;;26.83;15.73;;;;;;;20.99;52.56;99901.84;5075052;28;20059;-75
2022/08/14 02:37:48;;;;;;;27.35;15.32;;;;;;;21.04;52.61;99904.28;5056162;28;20163;-76
2022/08/14 02:40:17;;;;;;;31.67;16.05;;;;;;;21.03;52.59;99897.81;5074855;28;20044;-76
2022/08/14 02:42:47;;;;;;;28.60;16.38;;;;;;;20.98;52.94;99889.69;5074602;28;20045;-77
2022/08/14 02:45:24;;;;;;;32.22;16.35;;;;;;;21.03;52.70;99900.66;5074308;28;20044;-75
2022/08/14 02:48:07;;;;;;;31.75;15.88;;;;;;;21.05;52.76;99905.91;5074146;28;20056;-76
2022/08/14 02:50:37;;;;;;;30.08;15.60;;;;;;;21.11;52.60;99898.69;5074478;28;20045;-76
2022/08/14 02:53:04;;;;;;;23.92;13.73;;;;;;;21.20;52.39;99904.81;5073955;28;20512;-76
2022/08/14 02:55:34;;;;;;;27.63;14.18;;;;;;;21.26;52.00;99906.84;5074642;28;20438;-75
2022/08/14 02:58:03;;;;;;;28.55;14.38;;;;;;;21.34;51.51;99911.34;5074010;28;20052;-75
2022/08/14 03:00:34;;;;;;;30.13;14.50;;;;;;;21.38;51.52;99908.56;5074324;28;20094;-75
2022/08/14 03:03:08;;;;;;;21.88;13.77;;;;;;;21.38;51.50;99902.88;5073804;28;20523;-76
2022/08/14 03:05:36;;;;;;;28.80;13.38;;;;;;;21.45;50.98;99909.41;5073954;28;20064;-75
2022/08/14 03:08:12;;;;;;;26.75;14.75;;;;;;;21.47;51.37;99918.28;5074059;28;20055;-76
2022/08/14 03:10:45;;;;;;;31.30;13.95;;;;;;;21.46;51.15;99924.34;5055915;28;20052;-76
2022/08/14 03:13:15;;;;;;;26.63;12.90;;;;;;;21.54;50.97;99924.00;5073634;28;20427;-76
2022/08/14 03:15:52;;;;;;;25.08;13.45;;;;;;;21.62;50.63;99924.84;5063579;28;20057;-74
2022/08/14 03:18:24;;;;;;;30.25;15.25;;;;;;;21.69;50.30;99919.22;5053708;28;20512;-75
2022/08/14 03:21:06;;;;;;;25.25;13.13;;;;;;;21.81;49.90;99924.56;5053675;28;20076;-76
2022/08/14 03:23:35;;;;;;;29.40;13.80;;;;;;;21.87;49.87;99922.97;5053513;28;20061;-75
2022/08/14 03:26:07;;;;;;;23.92;13.43;;;;;;;21.98;49.75;99914.50;5053663;28;20076;-77
2022/08/14 03:28:50;;;;;;;25.67;13.73;;;;;;;22.06;49.87;99914.13;5055725;28;20053;-75
2022/08/14 03:31:22;;;;;;;27.35;13.82;;;;;;;22.11;49.61;99919.41;5073301;28;20131;-76
2022/08/14 03:33:51;;;;;;;28.70;13.10;;;;;;;22.17;49.34;99917.78;5073578;28;20056;-76
2022/08/14 03:36:21;;;;;;;24.00;14.50;;;;;;;22.24;49.29;99917.81;5073055;28;20049;-75
2022/08/14 03:39:10;;;;;;;21.67;12.77;;;;;;;22.25;49.13;99916.59;5055039;28;20064;-75
2022/08/14 03:41:52;;;;;;;28.77;14.00;;;;;;;22.24;49.04;99917.81;5057112;28;20125;-75
2022/08/14 03:44:19;;;;;;;;;;;;;;;22.12;49.36;99921.03;5055611;28;20048;-75
2022/08/14 03:47:06;;;;;;;18.83;12.40;;;;;;;22.18;49.04;99913.75;5073060;28;19931;-75
2022/08/14 03:49:35;;;;;;;23.98;12.70;;;;;;;22.25;48.91;99916.59;5073426;28;20052;-74
2022/08/14 03:52:07;;;;;;;25.15;13.27;;;;;;;22.26;48.80;99915.38;5073193;28;20555;-75
2022/08/14 03:54:54;;;;;;;25.25;13.50;;;;;;;22.30;49.05;99909.72;5072988;28;20052;-75
2022/08/14 03:57:21;;;;;;;27.13;12.88;;;;;;;22.36;48.84;99913.78;5072952;28;20504;-76
2022/08/14 03:59:49;;;;;;;23.15;13.23;;;;;;;22.39;48.85;99910.16;5055540;28;20419;-75
2022/08/14 04:02:16;;;;;;;22.88;11.90;;;;;;;22.44;48.65;99910.56;5073007;28;20056;-70
2022/08/14 04:05:05;;;;;;;23.20;11.57;;;;;;;22.49;48.50;99906.50;5067559;28;20048;-71
2022/08/14 04:07:38;;;;;;;25.10;11.77;;;;;;;22.48;48.33;99905.72;5052727;28;20500;-71
2022/08/14 04:10:15;;;;;;;19.30;11.82;;;;;;;22.51;48.21;99919.13;5052803;28;20040;-70
2022/08/14 04:12:42;;;;;;;19.90;11.38;;;;;;;22.56;48.45;99920.75;5052973;28;20045;-71
2022/08/14 04:15:18;;;;;;;24.67;13.65;;;;;;;22.64;48.46;99919.50;5036051;28;20052;-71
2022/08/14 04:17:49;;;;;;;28.20;13.57;;;;;;;22.71;48.48;99913.88;5052266;28;20063;-71
2022/08/14 04:20:16;;;;;;;24.52;13.50;;;;;;;22.80;48.48;99923.56;5052525;28;20071;-70
2022/08/14 04:22:52;;;;;;;22.58;12.18;;;;;;;22.87;48.22;99922.75;5052603;28;20041;-71
2022/08/14 04:25:21;;;;;;;20.50;11.98;;;;;;;22.92;48.06;99925.22;5052668;28;20102;-70
2022/08/14 04:27:48;;;;;;;24.98;12.38;;;;;;;22.96;47.88;99926.00;5052826;28;20053;-68
2022/08/14 04:30:29;;;;;;;17.75;10.30;;;;;;;22.97;47.62;99922.75;5069864;28;20567;-69
2022/08/14 04:32:58;;;;;;;;;;;;;;;22.90;47.82;99921.97;5072871;28;20052;-68
2022/08/14 04:35:37;;;;;;;18.38;10.45;;;;;;;23.02;47.58;99924.38;5072575;28;20349;-69
2022/08/14 04:43:58;;;;;;;19.20;9.88;;;;;;;23.20;47.06;99922.31;5072242;28;20554;-68
2022/08/14 04:46:27;;;;;;;21.60;9.10;;;;;;;23.30;46.77;99924.38;5072618;28;20052;-68
2022/08/14 04:49:14;;;;;;;17.45;9.38;;;;;;;23.36;46.68;99922.75;5073235;28;20462;-69
2022/08/14 04:51:41;;;;;;;13.43;8.30;;;;;;;23.39;46.46;99925.56;5063973;28;20044;-69
2022/08/14 04:54:25;;;;;;;17.08;9.32;;;;;;;23.45;46.61;99925.16;5058377;28;20049;-68
2022/08/14 04:56:56;;;;;;;13.45;8.77;;;;;;;23.55;46.37;99924.31;5059322;28;20151;-69
2022/08/14 04:59:23;;;;;;;15.23;9.60;;;;;;;23.62;46.56;99919.41;5076145;28;20048;-69
2022/08/14 05:01:52;;;;;;;18.73;9.10;;;;;;;23.71;46.45;99928.31;5076364;28;20041;-69
2022/08/14 05:04:23;;;;;;;12.45;7.13;;;;;;;23.78;46.00;99916.13;5075884;28;20044;-69
2022/08/14 05:06:53;;;;;;;14.38;6.60;;;;;;;23.85;45.72;99910.38;5075932;28;20049;-68
2022/08/14 05:09:24;;;;;;;13.30;8.30;;;;;;;23.93;45.54;99923.34;5050077;28;20500;-69
2022/08/14 05:11:56;;;;;;;15.95;8.20;;;;;;;23.96;45.25;99911.19;5056104;28;20051;-68
2022/08/14 05:14:45;;;;;;;13.85;6.95;;;;;;;24.07;45.31;99917.66;5056039;28;20052;-68
2022/08/14 05:17:25;;;;;;;18.27;7.35;;;;;;;24.18;44.97;99918.38;5055874;28;20110;-68
2022/08/14 05:20:09;;;;;;;13.82;7.03;;;;;;;24.22;44.46;99911.44;5056262;28;20064;-70
2022/08/14 05:22:58;;;;;;;13.27;7.47;;;;;;;24.29;44.20;99905.72;5055823;28;20072;-68
2022/08/14 05:25:26;;;;;;;11.63;7.30;;;;;;;24.38;44.27;99908.09;5056252;28;20136;-69
2022/08/14 05:28:18;;;;;;;15.13;7.10;;;;;;;24.52;44.15;99905.16;5037564;28;20060;-69
2022/08/14 05:30:51;;;;;;;15.48;7.50;;;;;;;24.63;43.72;99901.00;5075087;28;20079;-68
2022/08/14 05:33:19;;;;;;;19.05;8.80;;;;;;;24.77;43.69;99902.97;5058289;28;20052;-68
2022/08/14 05:35:47;;;;;;;18.42;6.90;;;;;;;24.90;43.99;99906.94;5075448;28;20526;-68
2022/08/14 05:38:16;;;;;;;14.52;7.53;;;;;;;25.05;43.24;99906.34;5075358;28;20151;-69
2022/08/14 05:40:59;;;;;;;11.88;6.35;;;;;;;25.24;42.90;99907.81;5075560;28;20071;-69
2022/08/14 05:43:26;;;;;;;;;;;;;;;25.33;43.01;99905.31;5075614;28;20053;-68
2022/08/14 05:46:12;;;;;;;12.88;5.85;;;;;;;25.69;42.37;99906.50;5075421;28;19936;-69
2022/08/14 05:48:41;;;;;;;14.77;5.30;;;;;;;26.04;41.54;99902.44;5075175;28;20066;-68
2022/08/14 05:51:08;;;;;;;18.23;5.95;;;;;;;27.15;39.51;99904.78;5075058;28;20054;-69
2022/08/14 05:53:36;;;;;;;10.57;5.32;;;;;;;28.90;36.23;99903.09;5075518;28;20331;-69
2022/08/14 05:56:08;;;;;;;11.07;5.22;;;;;;;29.55;34.23;99898.91;5074175;28;20098;-69
2022/08/14 05:58:34;;;;;;;16.13;5.47;;;;;;;31.26;32.20;99886.09;5054940;28;20075;-69
2022/08/14 06:01:08;;;;;;;13.55;6.30;;;;;;;33.85;27.64;99897.03;5054709;28;20098;-69
2022/08/14 06:03:35;;;;;;;12.82;5.35;;;;;;;33.80;27.54;99891.91;5054973;28;20435;-69
2022/08/14 06:06:06;;;;;;;10.13;5.22;;;;;;;32.37;29.03;99896.81;5055517;28;20444;-69
2022/08/14 06:08:33;;;;;;;15.48;4.85;;;;;;;31.23;30.56;99898.53;5055017;28;20450;-71
2022/08/14 06:11:08;;;;;;;12.02;4.80;;;;;;;30.20;31.79;99895.81;5055270;28;20407;-69
2022/08/14 06:13:40;;;;;;;8.82;4.55;;;;;;;29.46;32.25;99900.81;5055217;28;20138;-68
2022/08/14 06:16:15;;;;;;;12.00;5.25;;;;;;;28.94;33.15;99886.59;5054968;28;20052;-69
2022/08/14 06:18:48;;;;;;;11.35;5.15;;;;;;;28.70;33.82;99892.94;5037352;28;20087;-68
2022/08/14 06:21:22;;;;;;;7.88;5.07;;;;;;;28.99;33.39;99896.72;5055061;28;20048;-67
2022/08/14 06:23:49;;;;;;;12.45;5.00;;;;;;;29.41;32.14;99893.56;5054755;28;20053;-68
2022/08/14 06:26:17;;;;;;;7.80;4.88;;;;;;;29.48;32.11;99899.09;5054675;28;20049;-68
2022/08/14 06:28:49;;;;;;;12.55;4.38;;;;;;;30.50;30.55;99890.34;5057734;28;20044;-67
2022/08/14 06:31:19;;;;;;;7.53;4.10;;;;;;;31.13;28.97;99893.97;5074684;28;20131;-68
2022/08/14 06:33:47;;;;;;;12.27;4.65;;;;;;;30.43;30.47;99886.88;5074781;28;20090;-68
2022/08/14 06:36:36;;;;;;;12.27;4.60;;;;;;;29.72;31.40;99891.88;5074602;28;20052;-69
2022/08/14 06:39:03;;;;;;;10.25;4.68;;;;;;;29.69;31.93;99892.78;5074241;28;20056;-77
2022/08/14 06:41:36;;;;;;;6.22;3.97;;;;;;;30.64;29.76;99895.59;5074595;28;20044;-77
2022/08/14 06:44:22;;;;;;;6.20;3.88;;;;;;;30.82;29.37;99895.06;5074384;28;20053;-70
2022/08/14 06:46:59;;;;;;;7.43;3.72;;;;;;;30.77;28.95;99892.75;5074260;28;20094;-70
2022/08/14 06:49:26;;;;;;;8.10;3.53;;;;;;;30.61;28.96;99895.75;5074331;28;20151;-70
2022/08/14 06:51:56;;;;;;;4.65;3.25;;;;;;;30.39;29.12;99907.09;5074048;28;20063;-70
2022/08/14 06:54:25;;;;;;;8.52;3.58;;;;;;;30.13;29.60;99906.22;5073902;28;20504;-70
2022/08/14 06:56:57;;;;;;;6.65;3.17;;;;;;;29.71;29.89;99896.00;5074388;28;20056;-78
2022/08/14 06:59:24;;;;;;;9.80;4.00;;;;;;;29.42;30.72;99888.59;5074597;28;20059;-77
2022/08/14 07:07:24;;;;;;;7.50;3.92;;;;;;;29.28;30.93;99895.53;5071513;28;20060;-77
2022/08/14 07:09:54;;;;;;;10.07;3.85;;;;;;;29.83;30.09;99892.38;5035900;28;20052;-77
2022/08/14 07:12:22;;;;;;;12.20;4.47;;;;;;;30.36;29.83;99889.97;5034737;28;20508;-76
2022/08/14 07:15:09;;;;;;;9.95;4.25;;;;;;;30.37;29.77;99895.25;5036050;28;20155;-77
2022/08/14 07:17:45;;;;;;;6.97;3.95;;;;;;;30.41;29.65;99889.41;5053754;28;20420;-77
2022/08/14 07:20:19;;;;;;;5.60;3.85;;;;;;;30.49;29.08;99888.72;5053642;28;20508;-77
2022/08/14 07:22:59;;;;;;;6.90;3.90;;;;;;;30.46;28.50;99891.72;5053218;28;20102;-77
2022/08/14 07:25:35;;;;;;;10.43;4.13;;;;;;;33.71;25.42;99894.00;5037312;28;20079;-77
2022/08/14 07:28:17;;;;;;;7.45;3.13;;;;;;;39.30;18.88;99896.34;5053171;28;20518;-77
2022/08/14 07:30:47;;;;;;;12.18;4.38;;;;;;;42.68;15.46;99897.63;5073164;28;20056;-76
2022/08/14 07:33:20;;;;;;;10.23;3.42;;;;;;;44.60;13.37;99887.81;5073194;28;20055;-77
2022/08/14 07:35:56;;;;;;;13.43;4.65;;;;;;;45.82;12.64;99892.25;5073569;28;20507;-78
2022/08/14 07:38:28;;;;;;;7.28;3.38;;;;;;;47.52;11.86;99898.94;5073185;28;20060;-76
2022/08/14 07:41:04;;;;;;;6.53;2.97;;;;;;;49.52;10.14;99902.06;5073546;28;20040;-77
2022/08/14 07:43:42;;;;;;;6.68;3.00;;;;;;;50.43;9.27;99891.50;5073035;28;20499;-78
2022/08/14 07:46:21;;;;;;;11.38;2.28;;;;;;;51.52;7.97;99899.16;5073185;28;20098;-78
2022/08/14 07:48:57;;;;;;;6.72;2.75;;;;;;;51.81;8.08;99901.00;5073004;28;20047;-78
2022/08/14 07:51:25;;;;;;;4.82;2.55;;;;;;;51.39;7.83;99894.34;5073705;28;20044;-77
2022/08/14 07:54:03;;;;;;;9.07;2.45;;;;;;;51.86;7.35;99894.03;5073032;28;20044;-78
2022/08/14 07:56:36;;;;;;;5.03;3.05;;;;;;;52.03;7.51;99894.03;5070723;28;20048;-77
2022/08/14 07:59:16;;;;;;;6.93;2.70;;;;;;;52.94;7.43;99892.78;5039007;28;20051;-68
2022/08/14 08:01:45;;;;;;;3.33;2.40;;;;;;;54.00;6.27;99887.19;5073294;28;20405;-68
2022/08/14 08:04:21;;;;;;;5.13;2.50;;;;;;;54.12;6.55;99887.31;5072829;28;20044;-68
2022/08/14 08:06:51;;;;;;;7.05;2.65;;;;;;;54.86;6.12;99890.00;5073075;28;20082;-68
2022/08/14 08:09:24;;;;;;;6.45;2.67;;;;;;;55.45;5.66;99892.88;5055092;28;20052;-68
2022/08/14 08:12:01;;;;;;;7.00;2.70;;;;;;;55.69;6.00;99893.00;5072817;28;20068;-69
2022/08/14 08:14:35;;;;;;;6.85;2.40;;;;;;;56.86;5.09;99891.41;5072737;28;20060;-68
2022/08/14 08:17:23;;;;;;;3.85;2.20;;;;;;;57.77;4.23;99900.97;5057882;28;20048;-68
2022/08/14 08:19:50;;;;;;;5.65;3.55;;;;;;;57.39;4.27;99901.56;5072509;28;20419;-68
2022/08/14 08:22:20;;;;;;;12.77;2.80;;;;;;;56.86;4.34;99905.56;5072936;28;20064;-70
2022/08/14 08:24:47;;;;;;;5.53;2.95;;;;;;;56.62;4.71;99901.75;5072582;28;20557;-71
2022/08/14 08:27:19;;;;;;;6.97;2.90;;;;;;;56.77;4.31;99889.31;5072617;28;20458;-71
2022/08/14 08:29:47;;;;;;;5.53;2.78;;;;;;;57.13;4.46;99884.91;5060881;28;20462;-71
2022/08/14 08:32:17;;;;;;;3.92;2.78;;;;;;;57.27;3.96;99888.03;5052089;28;20048;-72
2022/08/14 08:34:45;;;;;;;3.60;2.55;;;;;;;57.19;4.68;99891.28;5052856;28;20057;-74
2022/08/14 08:37:14;;;;;;;4.03;2.40;;;;;;;52.96;6.44;99884.78;5052349;28;20053;-72
2022/08/14 08:39:45;;;;;;;5.10;2.42;;;;;;;49.57;7.73;99871.50;5052819;28;20049;-72
2022/08/14 08:42:29;;;;;;;5.80;3.10;;;;;;;52.84;6.50;99871.09;5035148;28;20052;-71
2022/08/14 08:45:05;;;;;;;5.55;2.80;;;;;;;54.31;5.29;99880.59;5052614;28;20048;-72
2022/08/14 08:47:39;;;;;;;5.13;2.80;;;;;;;54.79;5.38;99879.03;5063517;28;20056;-71
2022/08/14 08:50:18;;;;;;;12.75;2.88;;;;;;;55.44;5.14;99869.63;5072433;28;20052;-71
2022/08/14 08:53:08;;;;;;;7.43;3.00;;;;;;;56.74;4.41;99863.69;5054540;28;20076;-72
2022/08/14 08:55:43;;;;;;;4.78;2.72;;;;;;;57.11;3.94;99873.56;5072401;28;20045;-71
2022/08/14 08:58:16;;;;;;;6.83;3.10;;;;;;;57.11;4.42;99873.56;5072380;28;20193;-71
2022/08/14 09:00:56;;;;;;;4.53;2.80;;;;;;;57.11;3.87;99864.59;5072419;28;20131;-72
2022/08/14 09:03:26;;;;;;;4.65;2.97;;;;;;;58.08;3.95;99859.41;5071875;28;20396;-71
2022/08/14 09:06:00;;;;;;;5.40;3.17;;;;;;;57.86;3.50;99861.09;5072277;28;20048;-70
2022/08/14 09:08:34;;;;;;;11.00;4.10;;;;;;;57.55;3.48;99860.66;5072087;28;20539;-71
2022/08/14 09:11:08;;;;;;;5.53;3.30;;;;;;;57.32;3.78;99853.94;5054815;28;20056;-68
2022/08/14 09:13:51;;;;;;;5.00;3.45;;;;;;;57.50;4.39;99861.81;5072248;28;20059;-69
2022/08/14 09:16:21;;;;;;;3.22;2.83;;;;;;;56.29;4.19;99862.09;5053730;28;20048;-68
2022/08/14 09:18:50;;;;;;;4.53;3.10;;;;;;;54.71;5.47;99859.75;5053053;28;20055;-69
2022/08/14 09:21:20;;;;;;;8.90;3.72;;;;;;;56.43;4.69;99853.31;5034649;28;20057;-69
2022/08/14 09:23:54;;;;;;;4.18;2.83;;;;;;;57.86;4.01;99860.31;5051728;28;20091;-68
2022/08/14 09:26:43;;;;;;;7.20;3.30;;;;;;;58.41;3.54;99856.94;5033977;28;20110;-69
2022/08/14 09:29:17;;;;;;;3.85;3.38;;;;;;;57.80;3.64;99854.72;5059057;28;20533;-69
2022/08/14 09:31:55;;;;;;;4.82;3.25;;;;;;;58.56;3.01;99856.28;5072234;28;20076;-69
2022/08/14 09:35:02;;;;;;;5.63;3.35;;;;;;;59.05;3.64;99859.06;5071917;28;20504;-69
2022/08/14 09:37:43;;;;;;;10.27;3.70;;;;;;;57.71;4.09;99851.88;5074990;28;20052;-69
2022/08/14 09:40:19;;;;;;;8.20;2.88;;;;;;;51.28;6.56;99847.34;5075755;28;20048;-70
2022/08/14 09:43:13;;;;;;;13.15;3.35;;;;;;;49.17;7.44;99836.66;5075514;28;20048;-70
2022/08/14 09:45:49;;;;;;;5.95;2.75;;;;;;;45.73;9.67;99836.81;5075487;28;20499;-69
2022/08/14 09:48:23;;;;;;;8.07;3.10;;;;;;;43.42;11.19;99829.81;5075318;28;20503;-68
2022/08/14 09:50:57;;;;;;;;;;;;;;;41.40;12.73;99839.09;5075564;28;20047;-69
2022/08/14 09:53:47;;;;;;;6.68;3.25;;;;;;;40.24;13.25;99834.69;5075984;28;20015;-68
2022/08/14 09:56:45;;;;;;;9.68;3.60;;;;;;;39.28;14.50;99837.03;5075171;28;20059;-69
2022/08/14 09:59:24;;;;;;;5.18;3.20;;;;;;;38.41;15.32;99832.97;5075198;28;20143;-68
2022/08/14 10:01:55;;;;;;;8.80;3.50;;;;;;;37.99;16.14;99824.09;5075399;28;20044;-68
2022/08/14 10:04:27;;;;;;;6.65;3.33;;;;;;;37.74;16.25;99824.91;5075123;28;20461;-68
2022/08/14 10:07:05;;;;;;;5.68;3.47;;;;;;;37.07;16.70;99831.13;5056513;28;20470;-68
2022/08/14 10:09:47;;;;;;;6.22;3.33;;;;;;;36.34;17.54;99825.50;5061845;28;20040;-69
2022/08/14 10:12:49;;;;;;;7.03;3.28;;;;;;;35.86;18.61;99829.88;5074876;28;20051;-70
2022/08/14 10:15:24;;;;;;;5.47;3.55;;;;;;;35.51;19.56;99832.59;5074961;28;20053;-69
2022/08/14 10:18:13;;;;;;;8.70;3.22;;;;;;;35.07;20.13;99828.72;5074416;28;20457;-68
2022/08/14 10:20:59;;;;;;;5.80;2.80;;;;;;;34.83;20.67;99830.78;5075067;28;20048;-68
2022/08/14 10:23:38;;;;;;;5.68;3.50;;;;;;;34.55;20.72;99829.34;5074836;28;20048;-68
2022/08/14 10:26:07;;;;;;;15.35;3.83;;;;;;;34.28;20.77;99832.31;5068024;28;20140;-67
2022/08/14 10:28:44;;;;;;;8.43;4.00;;;;;;;34.00;22.02;99825.00;5056686;28;20504;-69
2022/08/14 10:31:32;;;;;;;5.68;3.60;;;;;;;33.68;22.28;99829.38;5074326;28;20127;-68
2022/08/14 10:34:19;;;;;;;9.20;6.82;;;;;;;33.27;22.28;99822.16;5056459;28;20502;-77
2022/08/14 10:37:04;;;;;;;6.72;4.70;;;;;;;33.04;22.66;99834.28;5056407;28;20057;-77
2022/08/14 10:39:42;;;;;;;7.57;3.95;;;;;;;32.88;22.58;99834.59;5074698;28;20056;-77
2022/08/14 10:42:38;;;;;;;6.72;4.32;;;;;;;32.64;22.81;99829.84;5074393;28;20094;-76
2022/08/14 10:45:21;;;;;;;8.25;4.78;;;;;;;32.52;22.76;99822.94;5074233;28;20064;-77
2022/08/14 10:47:51;;;;;;;10.38;4.97;;;;;;;32.51;23.15;99829.97;5074022;28;20044;-77
2022/08/14 10:50:40;;;;;;;11.25;4.50;;;;;;;32.54;23.63;99826.16;5074227;28;20155;-77
2022/08/14 10:53:08;;;;;;;10.10;4.43;;;;;;;32.31;23.86;99832.41;5074300;28;20050;-77
2022/08/14 10:55:39;;;;;;;6.40;3.92;;;;;;;32.20;23.95;99829.16;5062205;28;20091;-78
2022/08/14 10:58:12;;;;;;;8.07;4.13;;;;;;;32.15;23.59;99826.91;5054404;28;20052;-71
2022/08/14 11:00:41;;;;;;;;;;;;;;;31.98;23.61;99828.41;5074505;28;20048;-71
2022/08/14 11:03:13;;;;;;;8.30;4.50;;;;;;;32.06;23.45;99823.97;5074268;28;20367;-71
2022/08/14 11:05:52;;;;;;;13.05;4.18;;;;;;;32.11;24.19;99814.72;5073939;28;20114;-70
2022/08/14 11:08:32;;;;;;;5.50;3.97;;;;;;;32.19;23.92;99821.00;5073750;28;20056;-70
2022/08/14 11:11:02;;;;;;;6.05;4.28;;;;;;;32.18;24.81;99823.09;5073798;28;20090;-71
2022/08/14 11:13:30;;;;;;;7.70;4.13;;;;;;;32.20;24.10;99823.41;5073295;28;20047;-71
2022/08/14 11:16:00;;;;;;;7.90;4.20;;;;;;;32.17;23.66;99817.81;5073702;28;20080;-69
2022/08/14 11:18:29;;;;;;;8.10;3.92;;;;;;;32.17;23.97;99821.47;5073563;28;20135;-70
2022/08/14 11:21:06;;;;;;;8.57;4.88;;;;;;;31.98;24.06;99819.78;5055717;28;20139;-71
2022/08/14 11:23:37;;;;;;;5.75;3.88;;;;;;;31.76;24.04;99818.94;5073635;28;20049;-71
2022/08/14 11:26:07;;;;;;;20.42;13.85;;;;;;;31.60;24.29;99813.41;5073341;28;20056;-70
2022/08/14 11:28:40;;;;;;;11.25;4.10;;;;;;;31.80;24.28;99819.63;5073331;28;20061;-70
2022/08/14 11:31:24;;;;;;;10.27;4.03;;;;;;;31.89;24.55;99824.66;5055730;28;20102;-70
2022/08/14 11:33:56;;;;;;;10.18;3.67;;;;;;;31.81;24.69;99818.34;5073061;28;20044;-70
2022/08/14 11:36:27;;;;;;;10.02;4.20;;;;;;;31.77;24.82;99826.34;5073377;28;20077;-71
2022/08/14 11:39:19;;;;;;;7.93;4.40;;;;;;;31.69;24.89;99819.22;5073633;28;20060;-71
2022/08/14 11:42:02;;;;;;;7.55;4.18;;;;;;;31.75;24.83;99812.41;5073207;28;20102;-71
2022/08/14 11:45:03;;;;;;;7.05;3.90;;;;;;;31.96;25.02;99821.50;5072957;28;20052;-71
2022/08/14 11:47:37;;;;;;;4.95;4.20;;;;;;;31.88;25.21;99815.22;5073065;28;20044;-71
2022/08/14 11:50:29;;;;;;;6.95;3.70;;;;;;;31.72;25.59;99809.66;5054658;28;20131;-71
2022/08/14 11:53:05;;;;;;;7.72;4.30;;;;;;;31.61;25.57;99815.00;5053492;28;20087;-71
2022/08/14 11:55:37;;;;;;;5.53;4.07;;;;;;;31.43;25.83;99820.63;5053085;28;20507;-70
2022/08/14 11:58:10;;;;;;;7.18;4.47;;;;;;;31.02;26.08;99812.28;5028750;28;20106;-71
2022/08/14 12:00:48;;;;;;;7.05;4.35;;;;;;;30.83;26.41;99807.59;5073009;28;20486;-71
2022/08/14 12:03:18;;;;;;;11.60;4.10;;;;;;;30.64;27.08;99809.44;5072882;28;20087;-70
2022/08/14 12:06:17;;;;;;;7.90;4.10;;;;;;;30.46;27.32;99802.69;5072928;28;20523;-71
2022/08/14 12:09:04;;;;;;;13.63;4.22;;;;;;;30.37;27.17;99802.59;5072518;28;20427;-72
2022/08/14 12:11:39;;;;;;;10.85;4.85;;;;;;;30.46;26.90;99806.34;5072549;28;20127;-71
2022/08/14 12:14:11;;;;;;;9.10;4.20;;;;;;;30.40;26.94;99808.19;5072633;28;20407;-71
2022/08/14 12:17:05;;;;;;;5.88;3.92;;;;;;;30.41;26.48;99806.94;5072533;28;20491;-70
2022/08/14 12:19:49;;;;;;;7.60;3.95;;;;;;;30.39;26.85;99802.91;5072437;28;20507;-70
2022/08/14 12:22:43;;;;;;;11.45;4.55;;;;;;;30.30;27.09;99794.19;5073107;28;20048;-70